createdAt,value
2023-04-24T00:01:18.100Z,13.70
2023-04-24T00:04:07.450Z,13.60
2023-04-24T00:06:58.349Z,13.60
2023-04-24T00:09:45.299Z,13.60
2023-04-24T00:12:32.885Z,13.60
2023-04-24T00:15:19.482Z,13.60
2023-04-24T00:18:06.096Z,13.50
2023-04-24T00:20:54.646Z,13.50
2023-04-24T00:23:41.298Z,13.50
2023-04-24T00:26:27.647Z,13.50
2023-04-24T00:29:14.278Z,13.40
2023-04-24T00:32:01.213Z,13.40
2023-04-24T00:34:48.045Z,13.40
2023-04-24T00:37:35.846Z,13.30
2023-04-24T00:40:22.734Z,13.20
2023-04-24T00:43:10.653Z,13.20
2023-04-24T00:45:57.631Z,13.10
2023-04-24T00:48:45.928Z,13.10
2023-04-24T00:51:33.791Z,13.10
2023-04-24T00:54:22.404Z,13.00
2023-04-24T00:57:09.119Z,13.00
2023-04-24T00:59:55.665Z,12.90
2023-04-24T01:02:46.369Z,12.90
2023-04-24T01:05:33.761Z,12.90
2023-04-24T01:08:21.098Z,12.80
2023-04-24T01:11:09.195Z,12.70
2023-04-24T01:13:55.651Z,12.80
2023-04-24T01:16:42.468Z,12.70
2023-04-24T01:19:29.251Z,12.70
2023-04-24T01:22:18.287Z,12.60
2023-04-24T01:25:06.095Z,12.70
2023-04-24T01:27:53.699Z,12.60
2023-04-24T01:30:40.104Z,12.60
2023-04-24T01:33:26.668Z,12.50
2023-04-24T01:36:13.735Z,12.50
2023-04-24T01:39:01.763Z,12.50
2023-04-24T01:41:48.563Z,12.40
2023-04-24T01:44:36.022Z,12.50
2023-04-24T01:47:23.089Z,12.50
2023-04-24T01:50:10.723Z,12.50
2023-04-24T01:52:57.484Z,12.60
2023-04-24T01:55:45.270Z,12.60
2023-04-24T01:58:31.950Z,12.50
2023-04-24T02:01:21.177Z,12.60
2023-04-24T02:04:09.266Z,12.60
2023-04-24T02:06:55.970Z,12.60
2023-04-24T02:09:42.797Z,12.70
2023-04-24T02:12:30.833Z,12.60
2023-04-24T02:15:18.129Z,12.70
2023-04-24T02:18:04.780Z,12.60
2023-04-24T02:20:51.403Z,12.60
2023-04-24T02:23:37.770Z,12.60
2023-04-24T02:26:24.142Z,12.60
2023-04-24T02:29:11.913Z,12.60
2023-04-24T02:31:58.755Z,12.60
2023-04-24T02:34:45.595Z,12.60
2023-04-24T02:37:31.862Z,12.50
2023-04-24T02:40:18.332Z,12.50
2023-04-24T02:43:04.804Z,12.50
2023-04-24T02:45:52.666Z,12.50
2023-04-24T02:48:39.233Z,12.40
2023-04-24T02:51:26.167Z,12.40
2023-04-24T02:54:12.593Z,12.40
2023-04-24T02:56:58.961Z,12.40
2023-04-24T02:59:45.744Z,12.30
2023-04-24T03:02:33.617Z,12.20
2023-04-24T03:05:20.419Z,12.20
2023-04-24T03:08:07.221Z,12.30
2023-04-24T03:10:53.819Z,12.20
2023-04-24T03:13:40.714Z,12.10
2023-04-24T03:16:27.530Z,12.10
2023-04-24T03:19:15.755Z,12.10
2023-04-24T03:22:04.030Z,12.10
2023-04-24T03:24:50.711Z,12.10
2023-04-24T03:27:37.072Z,12.10
2023-04-24T03:30:23.539Z,12.00
2023-04-24T03:33:10.848Z,12.00
2023-04-24T03:35:58.774Z,12.00
2023-04-24T03:38:45.259Z,12.00
2023-04-24T03:41:32.079Z,12.00
2023-04-24T03:44:18.393Z,11.90
2023-04-24T03:47:05.018Z,11.90
2023-04-24T03:49:52.711Z,11.90
2023-04-24T03:52:40.415Z,11.90
2023-04-24T03:55:27.126Z,11.90
2023-04-24T03:58:14.807Z,11.80
2023-04-24T04:01:01.206Z,11.90
2023-04-24T04:03:47.811Z,11.90
2023-04-24T04:06:34.620Z,12.00
2023-04-24T04:09:22.524Z,12.00
2023-04-24T04:12:08.929Z,12.00
2023-04-24T04:14:55.513Z,12.00
2023-04-24T04:17:41.995Z,12.00
2023-04-24T04:20:28.450Z,12.00
2023-04-24T04:23:14.905Z,12.10
2023-04-24T04:26:02.649Z,12.10
2023-04-24T04:28:50.074Z,12.20
2023-04-24T04:31:36.690Z,12.10
2023-04-24T04:34:23.643Z,12.10
2023-04-24T04:37:12.187Z,12.10
2023-04-24T04:39:59.063Z,12.10
2023-04-24T04:42:47.139Z,12.10
2023-04-24T04:45:35.352Z,12.00
2023-04-24T04:48:22.284Z,12.00
2023-04-24T04:51:08.764Z,12.10
2023-04-24T04:53:55.181Z,12.00
2023-04-24T04:56:41.478Z,12.00
2023-04-24T04:59:29.206Z,12.00
2023-04-24T05:02:16.053Z,12.00
2023-04-24T05:05:02.894Z,11.90
2023-04-24T05:07:49.778Z,12.00
2023-04-24T05:10:37.900Z,12.10
2023-04-24T05:16:15.049Z,12.00
2023-04-24T05:19:01.747Z,12.00
2023-04-24T05:21:48.151Z,12.00
2023-04-24T05:24:34.430Z,12.00
2023-04-24T05:27:21.673Z,12.00
2023-04-24T05:30:10.495Z,10.70
2023-04-24T05:33:00.070Z,11.90
2023-04-24T05:35:48.489Z,11.90
2023-04-24T05:38:34.925Z,11.80
2023-04-24T05:41:22.215Z,11.90
2023-04-24T05:44:08.884Z,11.80
2023-04-24T05:46:56.429Z,11.80
2023-04-24T05:49:44.821Z,11.70
2023-04-24T05:52:31.454Z,11.70
2023-04-24T05:55:18.504Z,11.70
2023-04-24T05:58:05.657Z,11.60
2023-04-24T06:00:52.126Z,11.70
2023-04-24T06:03:38.982Z,11.60
2023-04-24T06:06:28.223Z,11.60
2023-04-24T06:09:14.922Z,11.70
2023-04-24T06:12:01.526Z,11.70
2023-04-24T06:14:48.099Z,11.70
2023-04-24T06:17:34.781Z,11.80
2023-04-24T06:20:22.062Z,11.90
2023-04-24T06:23:09.835Z,11.90
2023-04-24T06:25:56.381Z,11.90
2023-04-24T06:28:42.953Z,12.00
2023-04-24T06:31:29.373Z,11.90
2023-04-24T06:34:16.084Z,11.80
2023-04-24T06:37:03.054Z,11.80
2023-04-24T06:39:50.793Z,11.90
2023-04-24T06:42:37.959Z,11.90
2023-04-24T06:45:24.993Z,11.90
2023-04-24T06:48:11.852Z,11.90
2023-04-24T06:50:58.530Z,11.90
2023-04-24T06:53:44.987Z,11.90
2023-04-24T06:56:35.233Z,11.80
2023-04-24T06:59:22.089Z,11.90
2023-04-24T07:02:08.896Z,11.90
2023-04-24T07:04:55.846Z,12.00
2023-04-24T07:07:43.818Z,11.90
2023-04-24T07:10:31.308Z,11.90
2023-04-24T07:13:19.489Z,12.00
2023-04-24T07:16:07.119Z,12.10
2023-04-24T07:18:54.094Z,12.20
2023-04-24T07:21:40.751Z,12.10
2023-04-24T07:24:30.843Z,12.10
2023-04-24T07:27:17.680Z,11.90
2023-04-24T07:30:06.141Z,12.00
2023-04-24T07:32:52.876Z,12.00
2023-04-24T07:35:39.256Z,11.90
2023-04-24T07:38:26.884Z,11.80
2023-04-24T07:41:13.596Z,11.90
2023-04-24T07:44:00.807Z,11.90
2023-04-24T07:46:48.950Z,11.90
2023-04-24T07:49:35.900Z,11.80
2023-04-24T07:52:22.414Z,11.80
2023-04-24T07:55:09.475Z,11.90
2023-04-24T07:57:55.960Z,11.80
2023-04-24T08:00:42.367Z,11.90
2023-04-24T08:03:30.281Z,11.80
2023-04-24T08:06:17.000Z,11.80
2023-04-24T08:09:03.701Z,11.90
2023-04-24T08:11:50.530Z,11.80
2023-04-24T08:14:37.114Z,11.90
2023-04-24T08:17:24.196Z,12.00
2023-04-24T08:20:14.753Z,11.90
2023-04-24T08:23:01.397Z,12.00
2023-04-24T08:25:48.155Z,12.10
2023-04-24T08:28:34.730Z,12.10
2023-04-24T08:31:21.134Z,12.20
2023-04-24T08:34:07.425Z,12.30
2023-04-24T08:36:55.964Z,12.60
2023-04-24T08:39:42.634Z,12.70
2023-04-24T08:42:33.654Z,12.50
2023-04-24T08:45:20.355Z,12.40
2023-04-24T08:48:13.797Z,12.40
2023-04-24T08:51:09.042Z,12.40
2023-04-24T08:53:58.703Z,12.40
2023-04-24T08:56:46.863Z,12.50
2023-04-24T08:59:34.194Z,12.40
2023-04-24T09:02:21.032Z,12.30
2023-04-24T09:05:09.755Z,12.20
2023-04-24T09:07:57.689Z,12.30
2023-04-24T09:10:46.219Z,12.30
2023-04-24T09:13:35.101Z,12.10
2023-04-24T09:16:24.185Z,12.20
2023-04-24T09:19:10.795Z,12.30
2023-04-24T09:21:58.027Z,12.50
2023-04-24T09:24:44.953Z,12.40
2023-04-24T09:27:33.534Z,12.40
2023-04-24T09:30:24.657Z,12.30
2023-04-24T09:33:16.093Z,12.20
2023-04-24T09:36:03.477Z,12.30
2023-04-24T09:38:49.955Z,11.10
2023-04-24T09:41:36.506Z,12.40
2023-04-24T09:44:26.616Z,12.40
2023-04-24T09:47:13.168Z,12.30
2023-04-24T09:50:00.671Z,12.40
2023-04-24T09:52:48.643Z,12.60
2023-04-24T09:55:35.211Z,12.60
2023-04-24T09:58:27.433Z,12.40
2023-04-24T10:01:15.547Z,12.40
2023-04-24T10:04:02.398Z,12.30
2023-04-24T10:06:51.076Z,12.20
2023-04-24T10:09:38.113Z,12.20
2023-04-24T10:12:26.210Z,12.10
2023-04-24T10:15:14.872Z,12.40
2023-04-24T10:18:04.020Z,12.50
2023-04-24T10:20:50.999Z,12.80
2023-04-24T10:23:38.887Z,13.10
2023-04-24T10:26:26.374Z,13.10
2023-04-24T10:29:14.603Z,12.90
2023-04-24T10:32:01.250Z,13.00
2023-04-24T10:34:49.907Z,12.90
2023-04-24T10:37:39.172Z,12.80
2023-04-24T10:40:29.367Z,12.90
2023-04-24T10:43:20.532Z,12.80
2023-04-24T10:46:08.503Z,12.60
2023-04-24T10:48:56.524Z,12.60
2023-04-24T10:51:51.950Z,12.60
2023-04-24T10:54:43.360Z,12.70
2023-04-24T10:57:34.101Z,12.70
2023-04-24T11:03:30.063Z,13.10
2023-04-24T11:06:16.937Z,13.20
2023-04-24T11:09:09.152Z,13.40
2023-04-24T11:12:06.002Z,13.20
2023-04-24T11:15:03.851Z,13.00
2023-04-24T11:17:51.972Z,13.00
2023-04-24T11:20:38.579Z,13.30
2023-04-24T11:23:25.050Z,13.30
2023-04-24T11:26:20.975Z,13.10
2023-04-24T11:29:10.044Z,12.90
2023-04-24T11:31:58.223Z,12.70
2023-04-24T11:34:48.327Z,12.40
2023-04-24T11:37:38.123Z,12.20
2023-04-24T11:40:26.578Z,12.10
2023-04-24T11:43:16.405Z,12.20
2023-04-24T11:46:05.669Z,12.10
2023-04-24T11:48:52.963Z,12.00
2023-04-24T11:51:52.205Z,11.90
2023-04-24T11:54:40.468Z,11.80
2023-04-24T11:57:29.931Z,11.70
2023-04-24T12:00:20.647Z,11.70
2023-04-24T12:03:09.378Z,11.80
2023-04-24T12:06:07.497Z,11.70
2023-04-24T12:09:01.624Z,11.60
2023-04-24T12:11:55.863Z,11.50
2023-04-24T12:14:54.388Z,11.40
2023-04-24T12:17:44.245Z,11.30
2023-04-24T12:20:33.370Z,11.40
2023-04-24T12:23:36.484Z,11.40
2023-04-24T12:26:23.699Z,11.40
2023-04-24T12:29:10.051Z,11.30
2023-04-24T12:31:57.233Z,11.30
2023-04-24T12:34:45.969Z,11.10
2023-04-24T12:37:37.445Z,11.10
2023-04-24T12:40:30.000Z,11.00
2023-04-24T12:43:17.456Z,10.70
2023-04-24T12:46:04.823Z,10.70
2023-04-24T12:48:52.585Z,10.60
2023-04-24T12:51:40.550Z,10.60
2023-04-24T12:54:27.306Z,10.50
2023-04-24T12:57:13.763Z,10.30
2023-04-24T13:00:00.880Z,10.20
2023-04-24T13:02:47.532Z,10.20
2023-04-24T13:05:34.217Z,10.20
2023-04-24T13:08:21.860Z,10.10
2023-04-24T13:11:08.269Z,10.20
2023-04-24T13:13:55.427Z,10.10
2023-04-24T13:16:42.159Z,9.90
2023-04-24T13:19:31.188Z,9.80
2023-04-24T13:22:19.666Z,9.80
2023-04-24T13:25:09.920Z,9.80
2023-04-24T13:27:56.691Z,10.10
2023-04-24T13:30:43.222Z,9.90
2023-04-24T13:33:29.897Z,9.90
2023-04-24T13:36:17.767Z,9.90
2023-04-24T13:39:05.395Z,9.90
2023-04-24T13:41:53.288Z,10.00
2023-04-24T13:44:39.904Z,9.80
2023-04-24T13:47:26.347Z,9.90
2023-04-24T13:50:12.719Z,9.80
2023-04-24T13:53:02.630Z,9.80
2023-04-24T13:55:49.739Z,9.70
2023-04-24T13:58:38.194Z,9.90
2023-04-24T14:01:25.985Z,9.90
2023-04-24T14:04:13.386Z,9.80
2023-04-24T14:07:00.461Z,10.00
2023-04-24T14:09:46.804Z,10.10
2023-04-24T14:12:33.436Z,10.30
2023-04-24T14:15:21.952Z,10.40
2023-04-24T14:18:08.834Z,10.20
2023-04-24T14:20:55.550Z,10.10
2023-04-24T14:23:42.362Z,9.80
2023-04-24T14:26:28.881Z,10.00
2023-04-24T14:29:15.680Z,10.00
2023-04-24T14:32:03.745Z,10.20
2023-04-24T14:34:51.378Z,10.10
2023-04-24T14:37:37.969Z,10.10
2023-04-24T14:40:48.274Z,10.00
2023-04-24T14:43:31.418Z,10.10
2023-04-24T14:46:18.012Z,10.30
2023-04-24T14:49:06.292Z,10.30
2023-04-24T14:51:52.971Z,10.30
2023-04-24T14:54:39.419Z,10.30
2023-04-24T14:57:26.166Z,10.30
2023-04-24T15:00:13.676Z,10.40
2023-04-24T15:03:00.291Z,10.30
2023-04-24T15:05:48.398Z,10.50
2023-04-24T15:08:35.063Z,10.40
2023-04-24T15:11:21.670Z,10.40
2023-04-24T15:14:09.158Z,10.40
2023-04-24T15:16:57.340Z,10.60
2023-04-24T15:19:44.275Z,10.40
2023-04-24T15:22:32.025Z,10.40
2023-04-24T15:25:18.795Z,10.40
2023-04-24T15:28:06.941Z,10.50
2023-04-24T15:30:53.729Z,10.40
2023-04-24T15:33:40.177Z,10.40
2023-04-24T15:36:26.731Z,10.30
2023-04-24T15:39:14.511Z,10.50
2023-04-24T15:42:01.627Z,10.40
2023-04-24T15:44:47.895Z,10.40
2023-04-24T15:47:34.681Z,10.30
2023-04-24T15:50:22.742Z,10.20
2023-04-24T15:53:09.777Z,10.20
2023-04-24T15:55:58.286Z,10.20
2023-04-24T15:58:45.504Z,10.30
2023-04-24T16:01:32.304Z,10.20
2023-04-24T16:04:19.002Z,10.20
2023-04-24T16:07:05.978Z,10.10
2023-04-24T16:09:52.545Z,10.00
2023-04-24T16:12:40.884Z,9.90
2023-04-24T16:15:27.198Z,9.90
2023-04-24T16:18:13.676Z,10.10
2023-04-24T16:20:59.947Z,10.00
2023-04-24T16:23:46.348Z,10.00
2023-04-24T16:26:33.150Z,10.10
2023-04-24T16:29:22.345Z,10.00
2023-04-24T16:32:08.585Z,10.10
2023-04-24T16:34:55.584Z,10.00
2023-04-24T16:37:42.508Z,9.90
2023-04-24T16:40:29.177Z,10.00
2023-04-24T16:43:15.597Z,9.90
2023-04-24T16:46:03.939Z,10.00
2023-04-24T16:48:50.893Z,10.00
2023-04-24T16:51:37.798Z,10.10
2023-04-24T16:54:24.168Z,9.90
2023-04-24T16:57:10.592Z,10.00
2023-04-24T16:59:57.115Z,10.10
2023-04-24T17:02:48.517Z,10.00
2023-04-24T17:05:35.896Z,10.10
2023-04-24T17:08:23.810Z,10.20
2023-04-24T17:11:10.668Z,10.10
2023-04-24T17:13:59.606Z,10.10
2023-04-24T17:16:46.941Z,10.10
2023-04-24T17:19:34.902Z,10.10
2023-04-24T17:22:21.543Z,10.10
2023-04-24T17:25:08.606Z,10.20
2023-04-24T17:27:55.341Z,10.10
2023-04-24T17:30:41.877Z,9.90
2023-04-24T17:33:29.172Z,10.00
2023-04-24T17:36:17.819Z,10.00
2023-04-24T17:39:04.822Z,10.10
2023-04-24T17:41:51.718Z,10.10
2023-04-24T17:44:38.342Z,10.00
2023-04-24T17:47:26.288Z,10.00
2023-04-24T17:50:13.133Z,9.90
2023-04-24T17:53:01.302Z,9.80
2023-04-24T17:55:47.833Z,9.80
2023-04-24T17:58:35.022Z,9.80
2023-04-24T18:01:21.902Z,9.70
2023-04-24T18:04:08.788Z,9.80
2023-04-24T18:06:55.286Z,9.80
2023-04-24T18:09:43.122Z,9.70
2023-04-24T18:12:30.038Z,9.70
2023-04-24T18:15:17.001Z,9.50
2023-04-24T18:18:04.042Z,9.60
2023-04-24T18:20:50.560Z,9.60
2023-04-24T18:23:37.983Z,9.50
2023-04-24T18:26:26.228Z,9.40
2023-04-24T18:29:13.071Z,9.40
2023-04-24T18:31:59.721Z,9.30
2023-04-24T18:34:46.315Z,9.30
2023-04-24T18:37:33.568Z,9.40
2023-04-24T18:40:20.370Z,9.20
2023-04-24T18:43:08.325Z,9.20
2023-04-24T18:45:55.045Z,9.10
2023-04-24T18:48:41.410Z,9.20
2023-04-24T18:51:28.205Z,9.10
2023-04-24T18:54:15.142Z,9.20
2023-04-24T18:57:02.605Z,9.20
2023-04-24T18:59:50.929Z,9.20
2023-04-24T19:02:37.897Z,9.20
2023-04-24T19:05:24.529Z,9.20
2023-04-24T19:08:10.828Z,9.10
2023-04-24T19:10:57.421Z,9.10
2023-04-24T19:13:43.922Z,9.10
2023-04-24T19:16:32.143Z,9.10
2023-04-24T19:19:18.943Z,9.10
2023-04-24T19:22:05.596Z,9.20
2023-04-24T19:24:53.744Z,9.20
2023-04-24T19:27:40.617Z,9.20
2023-04-24T19:30:27.329Z,9.10
2023-04-24T19:33:15.101Z,9.30
2023-04-24T19:36:01.960Z,9.30
2023-04-24T19:38:50.747Z,9.20
2023-04-24T19:41:39.285Z,9.30
2023-04-24T19:44:25.849Z,9.30
2023-04-24T19:47:13.762Z,9.30
2023-04-24T19:50:01.888Z,9.30
2023-04-24T19:52:48.325Z,9.30
2023-04-24T19:55:34.754Z,9.30
2023-04-24T19:58:21.205Z,9.40
2023-04-24T20:01:07.504Z,9.30
2023-04-24T20:03:54.010Z,9.40
2023-04-24T20:06:42.354Z,9.40
2023-04-24T20:09:29.910Z,9.40
2023-04-24T20:12:18.111Z,9.30
2023-04-24T20:15:04.910Z,9.40
2023-04-24T20:17:51.357Z,9.40
2023-04-24T20:20:38.747Z,9.40
2023-04-24T20:23:27.186Z,9.30
2023-04-24T20:26:13.810Z,9.40
2023-04-24T20:29:00.280Z,9.40
2023-04-24T20:31:47.401Z,9.40
2023-04-24T20:34:34.176Z,9.40
2023-04-24T20:37:20.837Z,9.40
2023-04-24T20:40:10.039Z,9.30
2023-04-24T20:42:58.416Z,9.30
2023-04-24T20:45:45.190Z,9.30
2023-04-24T20:48:31.538Z,9.30
2023-04-24T20:51:19.591Z,9.30
2023-04-24T20:54:06.104Z,9.20
2023-04-24T20:56:54.188Z,9.20
2023-04-24T20:59:40.902Z,9.20
2023-04-24T21:02:27.931Z,9.20
2023-04-24T21:05:14.882Z,9.20
2023-04-24T21:08:01.433Z,9.20
2023-04-24T21:10:47.981Z,9.10
2023-04-24T21:13:35.921Z,9.20
2023-04-24T21:16:22.375Z,9.10
2023-04-24T21:19:09.250Z,9.10
2023-04-24T21:21:55.933Z,9.10
2023-04-24T21:24:42.333Z,9.10
2023-04-24T21:27:28.806Z,9.20
2023-04-24T21:30:16.770Z,9.10
2023-04-24T21:33:03.510Z,9.20
2023-04-24T21:35:50.411Z,9.10
2023-04-24T21:38:37.069Z,9.00
2023-04-24T21:41:24.689Z,9.00
2023-04-24T21:44:11.354Z,8.80
2023-04-24T21:46:59.230Z,8.80
2023-04-24T21:49:46.122Z,8.90
2023-04-24T21:52:32.797Z,9.00
2023-04-24T21:55:19.281Z,8.90
2023-04-24T21:58:05.856Z,8.80
2023-04-24T22:00:52.148Z,8.90
2023-04-24T22:03:40.258Z,8.70
2023-04-24T22:06:27.324Z,8.70
2023-04-24T22:09:13.760Z,8.60
2023-04-24T22:12:00.525Z,8.80
2023-04-24T22:14:47.129Z,8.80
2023-04-24T22:17:33.710Z,8.80
2023-04-24T22:20:22.685Z,8.70
2023-04-24T22:23:09.060Z,8.70
2023-04-24T22:25:55.567Z,8.70
2023-04-24T22:28:41.934Z,8.80
2023-04-24T22:31:28.562Z,8.80
2023-04-24T22:34:17.052Z,8.90
2023-04-24T22:37:04.700Z,8.80
2023-04-24T22:39:51.171Z,8.80
2023-04-24T22:42:37.644Z,8.80
2023-04-24T22:45:23.959Z,8.80
2023-04-24T22:48:10.308Z,8.70
2023-04-24T22:50:56.867Z,8.60
2023-04-24T22:53:44.540Z,8.60
2023-04-24T22:56:31.712Z,8.60
2023-04-24T22:59:18.628Z,8.60
2023-04-24T23:02:05.270Z,8.60
2023-04-24T23:04:52.165Z,8.60
2023-04-24T23:07:39.267Z,8.60
2023-04-24T23:10:27.484Z,8.60
2023-04-24T23:13:14.122Z,8.50
2023-04-24T23:16:00.576Z,8.60
2023-04-24T23:18:46.951Z,8.50
2023-04-24T23:21:34.358Z,8.60
2023-04-24T23:24:20.902Z,8.60
2023-04-24T23:27:08.747Z,8.70
2023-04-24T23:29:55.260Z,8.60
2023-04-24T23:32:44.140Z,8.70
2023-04-24T23:35:30.941Z,8.60
2023-04-24T23:38:17.503Z,8.60
2023-04-24T23:41:03.991Z,8.60
2023-04-24T23:43:51.997Z,8.60
2023-04-24T23:46:38.677Z,8.50
2023-04-24T23:49:25.300Z,8.50
2023-04-24T23:52:12.268Z,8.40
2023-04-24T23:54:58.882Z,8.40
2023-04-24T23:57:45.303Z,8.50
